Flight Track Log - Related Links

Times and Time Zones

All times are in EDT time to prevent confusion due to time zone crossing. See the AAR8733 flight status page for this flight to view local times or setup timezone preferences in your user account.

Time Position Orientation Groundspeed Altitude Reporting Facility
EDT Latitude Longitude Course Direction KTS MPH feet Rate Location/Type
Tue 09:05:03 PM 37.4970 126.8550 153° Southeast 195 224 3,800  Level FlightAware ADS-B
Tue 09:05:18 PM 37.4820 126.8630 157° South 217 250 4,100 1,200 Climbing FlightAware ADS-B
Tue 09:05:43 PM 37.4620 126.8750 155° Southeast 247 284 4,600 2,073 Climbing FlightAware ADS-B
Tue 09:06:13 PM 37.4210 126.8930 161° South 271 312 6,000 2,700 Climbing FlightAware ADS-B
Tue 09:06:43 PM 37.3840 126.8960 176° South 272 313 7,300 2,679 Climbing FlightAware ADS-B
Tue 09:07:09 PM 37.3520 126.8980 177° South 271 312 8,500 2,760 Climbing FlightAware ADS-B
Tue 09:07:33 PM 37.3190 126.8990 179° South 274 315 9,600 1,569 Climbing FlightAware ADS-B
Tue 09:08:14 PM 37.2690 126.9020 177° South 287 330 10,200 456 Climbing FlightAware ADS-B
Tue 09:08:52 PM 37.2260 126.9050 177° South 287 330 10,200  Level FlightAware ADS-B
Tue 09:09:28 PM 37.1860 126.9070 178° South 287 330 10,200  Level FlightAware ADS-B
Tue 09:10:06 PM 37.1430 126.9100 177° South 287 330 10,200 1,329 Level FlightAware ADS-B
Tue 09:12:00 PM 37.0033 126.9540 166° South  Level Estimated
Tue 09:12:06 PM 36.9110 126.9100 166° South 282 325 13,700  Level FlightAware ADS-B
Tue 09:12:56 PM 36.8560 126.9140 177° South 282 325 13,700  Level FlightAware ADS-B
Tue 09:13:34 PM 36.8140 126.9160 178° South 282 325 13,700  Level FlightAware ADS-B
Tue 09:16:00 PM 36.6369 126.9802 164° South  Level Estimated
Tue 09:17:00 PM 36.5641 127.0066 164° South  Level Estimated
Tue 09:18:00 PM 36.4913 127.0328 164° South  Level Estimated
Tue 09:19:00 PM 36.4184 127.0591 164° South  Level Estimated
Tue 09:20:00 PM 36.3456 127.0852 164° South  Level Estimated
Tue 09:21:00 PM 36.2728 127.1114 164° South  Level Estimated
Tue 09:22:00 PM 36.2000 127.1374 164° South  Level Estimated
Tue 09:23:00 PM 36.1271 127.1634 164° South  Level Estimated
Tue 09:24:00 PM 36.0543 127.1894 164° South  Level Estimated
Tue 09:25:00 PM 35.9814 127.2153 164° South  Level Estimated
Tue 09:26:00 PM 35.9086 127.2412 164° South  Level Estimated
Tue 09:27:00 PM 35.8357 127.2671 164° South  Level Estimated
Tue 09:28:00 PM 35.7629 127.2928 164° South  Level Estimated
Tue 09:29:00 PM 35.6900 127.3186 164° South  Level Estimated
Tue 09:30:00 PM 35.6171 127.3443 164° South  Level Estimated
Tue 09:31:00 PM 35.5443 127.3699 164° South  Level Estimated
Tue 09:32:00 PM 35.4714 127.3955 164° South  Level Estimated
Tue 09:33:00 PM 35.3985 127.4211 164° South  Level Estimated
Tue 09:34:00 PM 35.3256 127.4466 164° South  Level Estimated
Tue 09:35:00 PM 35.2527 127.4720 164° South  Level Estimated
Tue 09:36:00 PM 35.1798 127.4974 164° South  Level Estimated
Tue 09:37:00 PM 35.1069 127.5228 164° South  Level Estimated
Tue 09:38:00 PM 35.0339 127.5481 164° South  Level Estimated
Tue 09:39:00 PM 34.9610 127.5734 164° South  Level Estimated
Tue 09:40:00 PM 34.8881 127.5986 164° South  Level Estimated
Tue 09:41:00 PM 34.8398 127.6153 164° South  Level Estimated
Tue 09:42:00 PM 34.8398 127.6153 180° South  Level Estimated
Tue 09:43:00 PM 34.8398 127.6153 180° South  Level Estimated
Tue 09:44:00 PM 34.8398 127.6153 180° South  Level Estimated
Tue 09:45:00 PM 34.8398 127.6153 180° South  Level Estimated
Tue 09:46:00 PM 34.8398 127.6153 180° South  Level Estimated
Tue 09:47:00 PM 34.8398 127.6153 180° South  Level Estimated
Tue 09:48:00 PM 34.8398 127.6153 180° South  Level Estimated
Tue 09:49:00 PM 34.8398 127.6153 180° South  Level Estimated

Login

Don't have an account? Register now (free) for customized features, flight alerts, and more!